Terminal Aerodrome Forecast
Issued by NWS

Home | Current Version | Previous Version | Text Only | Print | Product List | Glossary On
Versions: 1 2 3 4 5 6 7 8 9 10 11 12 13 14 15
705
FTUS46 KMTR 241120
TAFSTS
TAF
KSTS 241120Z 2412/2512 16004KT P6SM OVC008
      TEMPO 2414/2417 3SM BR
     FM241800 19010KT P6SM SKC
     FM250300 15007KT P6SM SKC
     FM250500 15003KT P6SM BKN006
     FM250900 VRB03KT P6SM OVC005=

USA.gov is the U.S. government's official web portal to all federal, state and local government web resources and services.